METAR Data
IDs: Format: Raw Decoded Include TAF

Data at: 0158 UTC 25 Feb 2021

RKSS 250100Z 36002KT CAVOK 02/M06 Q1025 NOSIG